Time;durP1;ratioP1;P1;durP2;ratioP2;P2;SDS_P1;SDS_P2;PMS_P1;PMS_P2;Temp;Humidity;BMP_temperature;BMP_pressure;BME280_temperature;BME280_humidity;BME280_pressure;Samples;Min_cycle;Max_cycle;Signal;HPM_P1;HPM_P2
2022/10/03 00:01:01;;;;;;;;;;;;;;;10.16;100.00;102538.41;5064524;28;19938;-65
2022/10/03 00:03:33;;;;;;;;;;;;;;;10.10;100.00;102539.03;5034086;28;19920;-65
2022/10/03 00:06:17;;;;;;;;;;;;;;;10.07;100.00;102541.53;5045741;28;19916;-65
2022/10/03 00:08:51;;;;;;;;;;;;;;;10.01;100.00;102539.53;5043672;28;19913;-64
2022/10/03 00:11:35;;;;;;;;;;;;;;;9.98;100.00;102542.00;5069518;28;19923;-64
2022/10/03 00:14:16;;;;;;;;;;;;;;;9.96;100.00;102546.28;5093519;28;19907;-65
2022/10/03 00:16:57;;;;;;;;;;;;;;;9.92;100.00;102550.50;5082219;28;19934;-62
2022/10/03 00:19:22;;;;;;;;;;;;;;;9.93;100.00;102551.41;5087664;28;19912;-65
2022/10/03 00:22:06;;;;;;;;;;;;;;;9.90;100.00;102553.88;5074333;28;19919;-65
2022/10/03 00:24:51;;;;;;;;;;;;;;;9.87;100.00;102551.13;5072919;28;19935;-64
2022/10/03 00:27:35;;;;;;;;;;;;;;;9.84;100.00;102551.00;5030657;28;19927;-64
2022/10/03 00:30:21;;;;;;;;;;;;;;;9.81;100.00;102551.75;5079896;28;19953;-65
2022/10/03 00:32:53;;;;;;;;;;;;;;;9.77;100.00;102544.53;5078918;28;19944;-64
2022/10/03 00:35:19;;;;;;;;;;;;;;;9.74;100.00;102554.88;5076832;28;20406;-64
2022/10/03 00:37:44;;;;;;;;;;;;;;;9.74;100.00;102555.81;5070436;28;19916;-64
2022/10/03 00:40:12;;;;;;;;;;;;;;;9.76;100.00;102566.38;5092338;28;19908;-64
2022/10/03 00:42:53;;;;;;;;;;;;;;;9.71;100.00;102560.94;5075943;28;19912;-65
2022/10/03 00:45:37;;;;;;;;;;;;;;;9.72;100.00;102567.97;5073207;28;20433;-64
2022/10/03 00:48:21;;;;;;;;;;;;;;;9.67;100.00;102574.75;5074686;28;19913;-64
2022/10/03 00:50:52;;;;;;;;;;;;;;;9.70;100.00;102574.88;5082886;28;19916;-63
2022/10/03 00:53:41;;;;;;;;;;;;;;;9.63;100.00;102578.06;5075686;28;19919;-64
2022/10/03 00:56:09;;;;;;;;;;;;;;;9.60;100.00;102583.13;5073133;28;19916;-64
2022/10/03 00:58:50;;;;;;;;;;;;;;;9.56;100.00;102587.38;5074881;28;19951;-63
2022/10/03 01:01:27;;;;;;;;;;;;;;;9.56;100.00;102591.72;5081449;28;20251;-63
2022/10/03 01:03:55;;;;;;;;;;;;;;;9.56;100.00;102594.34;5085865;28;19965;-64
2022/10/03 01:06:30;;;;;;;;;;;;;;;9.57;100.00;102598.78;5084085;28;19939;-65
2022/10/03 01:09:08;;;;;;;;;;;;;;;9.66;100.00;102593.97;5093068;28;19920;-64
2022/10/03 01:11:40;;;;;;;;;;;;;;;9.68;100.00;102596.66;5074920;28;19920;-65
2022/10/03 01:14:30;;;;;;;;;;;;;;;9.64;100.00;102587.72;5066572;28;20280;-63
2022/10/03 01:16:55;;;;;;;;;;;;;;;9.69;100.00;102593.22;5064670;28;19913;-64
2022/10/03 01:19:20;;;;;;;;;;;;;;;9.72;100.00;102589.00;5056239;28;19919;-64
2022/10/03 01:21:45;;;;;;;;;;;;;;;9.71;100.00;102600.34;5057720;28;19916;-64
2022/10/03 01:24:29;;;;;;;;;;;;;;;9.73;100.00;102590.78;5070967;28;19958;-63
2022/10/03 01:26:57;;;;;;;;;;;;;;;9.69;100.00;102588.84;5067155;28;19913;-64
2022/10/03 01:32:33;;;;;;;;;;;;;;;9.74;100.00;102587.34;5066920;28;20298;-66
2022/10/03 01:34:59;;;;;;;;;;;;;;;9.82;100.00;102589.44;5067353;28;20372;-63
2022/10/03 01:37:50;;;;;;;;;;;;;;;9.82;100.00;102594.69;5055873;28;19913;-64
2022/10/03 01:40:18;;;;;;;;;;;;;;;9.84;100.00;102593.94;5055727;28;20387;-64
2022/10/03 01:42:53;;;;;;;;;;;;;;;9.89;100.00;102591.53;5055148;28;19919;-64
2022/10/03 01:45:28;;;;;;;;;;;;;;;9.91;100.00;102595.13;5073537;28;19954;-64
2022/10/03 01:47:57;;;;;;;;;;;;;;;9.98;100.00;102597.22;5065961;28;20276;-64
2022/10/03 01:50:45;;;;;;;;;;;;;;;9.96;100.00;102594.53;5072355;28;19967;-64
2022/10/03 01:53:37;;;;;;;;;;;;;;;10.00;100.00;102595.56;5047526;28;19940;-64
2022/10/03 01:56:17;;;;;;;;;;;;;;;9.94;100.00;102590.00;5057238;28;19916;-64
2022/10/03 01:58:53;;;;;;;;;;;;;;;9.91;100.00;102600.41;5058492;28;20332;-65
2022/10/03 02:01:37;;;;;;;;;;;;;;;9.88;100.00;102589.75;5055001;28;19991;-64
2022/10/03 02:04:11;;;;;;;;;;;;;;;9.86;100.00;102597.56;5063957;28;20328;-64
2022/10/03 02:06:48;;;;;;;;;;;;;;;9.86;100.00;102597.56;5057921;28;19982;-64
2022/10/03 02:09:25;;;;;;;;;;;;;;;9.83;100.00;102601.75;5056977;28;19954;-64
2022/10/03 02:12:03;;;;;;;;;;;;;;;9.79;100.00;102605.97;5073528;28;19970;-63
2022/10/03 02:14:38;;;;;;;;;;;;;;;9.78;100.00;102609.44;5075570;28;19942;-64
2022/10/03 02:17:09;;;;;;;;;;;;;;;9.74;100.00;102608.38;5068360;28;19970;-64
2022/10/03 02:19:41;;;;;;;;;;;;;;;9.75;100.00;102599.69;5061864;28;19913;-64
2022/10/03 02:22:14;;;;;;;;;;;;;;;9.68;100.00;102613.31;5065243;28;19916;-65
2022/10/03 02:24:48;;;;;;;;;;;;;;;9.64;100.00;102606.13;5069154;28;19912;-64
2022/10/03 02:27:16;;;;;;;;;;;;;;;9.57;100.00;102604.91;5072131;28;19921;-65
2022/10/03 02:29:41;;;;;;;;;;;;;;;9.57;100.00;102598.78;5063918;28;19938;-65
2022/10/03 02:32:22;;;;;;;;;;;;;;;9.56;100.00;102596.97;5069105;28;19913;-64
2022/10/03 02:34:57;;;;;;;;;;;;;;;9.53;100.00;102591.56;5063451;28;19916;-63
2022/10/03 02:37:40;;;;;;;;;;;;;;;9.48;100.00;102590.44;5063940;28;19966;-64
2022/10/03 02:40:21;;;;;;;;;;;;;;;9.45;100.00;102594.72;5070604;28;19959;-63
2022/10/03 02:43:06;;;;;;;;;;;;;;;9.39;100.00;102594.41;5054122;28;19919;-63
2022/10/03 02:45:43;;;;;;;;;;;;;;;9.36;100.00;102594.25;5061481;28;19917;-63
2022/10/03 02:48:16;;;;;;;;;;;;;;;9.33;100.00;102593.19;5062673;28;20340;-65
2022/10/03 02:50:48;;;;;;;;;;;;;;;9.34;100.00;102590.66;5071786;28;19916;-65
2022/10/03 02:53:40;;;;;;;;;;;;;;;9.27;100.00;102604.31;5054259;28;19998;-64
2022/10/03 02:56:18;;;;;;;;;;;;;;;9.21;100.00;102603.97;5060115;28;19924;-66
2022/10/03 02:59:01;;;;;;;;;;;;;;;9.18;100.00;102609.97;5064513;28;19999;-65
2022/10/03 03:01:32;;;;;;;;;;;;;;;9.14;100.00;102609.75;5053560;28;20352;-64
2022/10/03 03:04:00;;;;;;;;;;;;;;;9.10;100.00;102606.97;5059441;28;20356;-65
2022/10/03 03:06:35;;;;;;;;;;;;;;;9.08;100.00;102605.09;5058619;28;19917;-65
2022/10/03 03:09:22;;;;;;;;;;;;;;;9.06;100.00;102605.03;5070276;28;19919;-65
2022/10/03 03:12:05;;;;;;;;;;;;;;;9.04;100.00;102611.91;5069335;28;19916;-65
2022/10/03 03:14:39;;;;;;;;;;;;;;;9.01;100.00;102614.38;5054252;28;20007;-64
2022/10/03 03:17:05;;;;;;;;;;;;;;;8.99;100.00;102609.88;5075406;28;20550;-65
2022/10/03 03:19:49;;;;;;;;;;;;;;;9.02;100.00;102608.31;5075196;28;19916;-64
2022/10/03 03:22:28;;;;;;;;;;;;;;;8.97;100.00;102608.88;5080669;28;19912;-64
2022/10/03 03:25:12;;;;;;;;;;;;;;;8.91;100.00;102604.22;5062366;28;19921;-64
2022/10/03 03:27:43;;;;;;;;;;;;;;;9.04;100.00;102605.75;5086190;28;20365;-64
2022/10/03 03:30:19;;;;;;;;;;;;;;;8.99;100.00;102612.50;5074228;28;20050;-63
2022/10/03 03:32:47;;;;;;;;;;;;;;;8.96;100.00;102608.00;5085258;28;19920;-64
2022/10/03 03:35:12;;;;;;;;;;;;;;;8.94;100.00;102609.66;5073191;28;19919;-64
2022/10/03 03:38:01;;;;;;;;;;;;;;;8.96;100.00;102613.25;5078008;28;19912;-65
2022/10/03 03:40:52;;;;;;;;;;;;;;;8.96;100.00;102618.50;5080406;28;19916;-64
2022/10/03 03:43:36;;;;;;;;;;;;;;;8.99;100.00;102615.13;5087409;28;19950;-62
2022/10/03 03:46:12;;;;;;;;;;;;;;;9.02;100.00;102615.28;5091475;28;19912;-65
2022/10/03 03:48:47;;;;;;;;;;;;;;;9.08;100.00;102620.84;5074212;28;19920;-64
2022/10/03 03:51:20;;;;;;;;;;;;;;;9.22;100.00;102609.31;5076613;28;19941;-63
2022/10/03 03:54:03;;;;;;;;;;;;;;;9.32;100.00;102608.06;5080625;28;19913;-63
2022/10/03 03:56:37;;;;;;;;;;;;;;;9.35;100.00;102613.47;5076114;28;19912;-62
2022/10/03 03:59:05;;;;;;;;;;;;;;;9.39;100.00;102623.31;5082271;28;19947;-62
2022/10/03 04:01:36;;;;;;;;;;;;;;;9.54;100.00;102620.53;5089810;28;19923;-64
2022/10/03 04:04:15;;;;;;;;;;;;;;;9.58;100.00;102626.88;5076678;28;19919;-62
2022/10/03 04:06:45;;;;;;;;;;;;;;;9.65;100.00;102625.44;5082317;28;19912;-65
2022/10/03 04:09:23;;;;;;;;;;;;;;;9.63;100.00;102625.38;5080592;28;19912;-65
2022/10/03 04:12:08;;;;;;;;;;;;;;;9.66;100.00;102620.25;5081180;28;19924;-65
2022/10/03 04:14:56;;;;;;;;;;;;;;;9.74;100.00;102624.16;5073046;28;19912;-65
2022/10/03 04:20:45;;;;;;;;;;;;;;;9.79;100.00;102620.03;5067858;28;20100;-64
2022/10/03 04:23:29;;;;;;;;;;;;;;;9.84;100.00;102629.88;5076842;28;19916;-65
2022/10/03 04:26:06;;;;;;;;;;;;;;;9.82;100.00;102634.13;5075011;28;19912;-65
2022/10/03 04:28:41;;;;;;;;;;;;;;;9.86;100.00;102639.63;5074140;28;19920;-64
2022/10/03 04:31:13;;;;;;;;;;;;;;;9.86;100.00;102626.47;5077381;28;20006;-65
2022/10/03 04:33:55;;;;;;;;;;;;;;;9.92;100.00;102629.38;5074865;28;19916;-65
2022/10/03 04:36:38;;;;;;;;;;;;;;;9.89;100.00;102628.34;5088194;28;19912;-65
2022/10/03 04:39:08;;;;;;;;;;;;;;;9.86;100.00;102643.97;5072695;28;20381;-64
2022/10/03 04:41:33;;;;;;;;;;;;;;;9.86;100.00;102646.59;5080120;28;20237;-65
2022/10/03 04:44:04;;;;;;;;;;;;;;;9.81;100.00;102645.47;5081203;28;19912;-65
2022/10/03 04:46:30;;;;;;;;;;;;;;;9.81;100.00;102638.50;5078207;28;20065;-64
2022/10/03 04:49:14;;;;;;;;;;;;;;;9.78;100.00;102641.88;5082608;28;20573;-64
2022/10/03 04:51:56;;;;;;;;;;;;;;;9.82;100.00;102634.13;5086115;28;19916;-65
2022/10/03 04:54:26;;;;;;;;;;;;;;;9.86;100.00;102639.63;5078288;28;20018;-67
2022/10/03 04:56:59;;;;;;;;;;;;;;;9.89;100.00;102633.59;5079828;28;19991;-66
2022/10/03 04:59:27;;;;;;;;;;;;;;;9.93;100.00;102636.47;5080048;28;19919;-64
2022/10/03 05:02:13;;;;;;;;;;;;;;;9.97;100.00;102634.88;5073811;28;19959;-64
2022/10/03 05:04:59;;;;;;;;;;;;;;;10.00;100.00;102632.41;5071181;28;20708;-63
2022/10/03 05:07:30;;;;;;;;;;;;;;;10.06;100.00;102627.41;5077174;28;20287;-64
2022/10/03 05:09:58;;;;;;;;;;;;;;;10.09;100.00;102634.53;5087616;28;19911;-64
2022/10/03 05:12:42;;;;;;;;;;;;;;;10.11;100.00;102633.78;5080073;28;20494;-63
2022/10/03 05:15:23;;;;;;;;;;;;;;;10.16;100.00;102633.13;5075421;28;19912;-63
2022/10/03 05:18:03;;;;;;;;;;;;;;;10.24;100.00;102631.75;5075085;28;20419;-64
2022/10/03 05:20:47;;;;;;;;;;;;;;;10.30;100.00;102635.56;5073125;28;19919;-64
2022/10/03 05:23:15;;;;;;;;;;;;;;;10.34;100.00;102630.47;5072997;28;19916;-63
2022/10/03 05:25:52;;;;;;;;;;;;;;;10.36;100.00;102642.88;5073810;28;19943;-64
2022/10/03 05:28:25;;;;;;;;;;;;;;;10.38;100.00;102635.06;5075489;28;20352;-63
2022/10/03 05:31:15;;;;;;;;;;;;;;;10.43;100.00;102638.78;5072132;28;19916;-66
2022/10/03 05:34:00;;;;;;;;;;;;;;;10.43;100.00;102637.06;5075364;28;19927;-64
2022/10/03 05:36:49;;;;;;;;;;;;;;;10.45;100.00;102640.66;5076090;28;20001;-64
2022/10/03 05:39:17;;;;;;;;;;;;;;;10.54;100.00;102641.91;5075448;28;20284;-64
2022/10/03 05:41:52;;;;;;;;;;;;;;;10.54;100.00;102641.91;5071287;28;20003;-65
2022/10/03 05:44:20;;;;;;;;;;;;;;;10.58;100.00;102650.03;5067064;28;19919;-64
2022/10/03 05:46:51;;;;;;;;;;;;;;;10.59;100.00;102646.59;5072223;28;19912;-65
2022/10/03 05:49:25;;;;;;;;;;;;;;;10.61;100.00;102644.00;5057880;28;19994;-65
2022/10/03 05:52:02;;;;;;;;;;;;;;;10.65;100.00;102645.97;5075507;28;19917;-65
2022/10/03 05:54:30;;;;;;;;;;;;;;;10.66;100.00;102642.47;5066793;28;19993;-64
2022/10/03 05:57:08;;;;;;;;;;;;;;;10.69;100.00;102642.63;5074915;28;19916;-67
2022/10/03 05:59:58;;;;;;;;;;;;;;;10.70;100.00;102646.16;5057732;28;19956;-64
2022/10/03 06:02:42;;;;;;;;;;;;;;;10.70;100.00;102648.78;5074316;28;19912;-64
2022/10/03 06:05:19;;;;;;;;;;;;;;;10.69;100.00;102646.97;5075626;28;20386;-65
2022/10/03 06:07:48;;;;;;;;;;;;;;;10.68;100.00;102645.19;5077366;28;19967;-64
2022/10/03 06:10:24;;;;;;;;;;;;;;;10.62;100.00;102651.97;5074274;28;20018;-65
2022/10/03 06:12:50;;;;;;;;;;;;;;;10.57;100.00;102647.34;5074121;28;19916;-65
2022/10/03 06:15:18;;;;;;;;;;;;;;;10.55;100.00;102649.00;5074865;28;19998;-66
2022/10/03 06:18:13;;;;;;;;;;;;;;;10.53;100.00;102650.66;5074655;28;19995;-65
2022/10/03 06:20:54;;;;;;;;;;;;;;;10.56;100.00;102656.06;5060443;28;19908;-65
2022/10/03 06:23:21;;;;;;;;;;;;;;;10.54;100.00;102657.72;5073812;28;19913;-66
2022/10/03 06:26:13;;;;;;;;;;;;;;;10.55;100.00;102662.16;5055740;28;19912;-65
2022/10/03 06:29:08;;;;;;;;;;;;;;;10.58;100.00;102654.38;5074089;28;19991;-65
2022/10/03 06:31:51;;;;;;;;;;;;;;;10.62;100.00;102656.31;5055368;28;19912;-65
2022/10/03 06:34:28;;;;;;;;;;;;;;;10.68;100.00;102664.50;5073030;28;19961;-65
2022/10/03 06:37:04;;;;;;;;;;;;;;;10.73;100.00;102669.97;5074026;28;19955;-64
2022/10/03 06:39:48;;;;;;;;;;;;;;;10.78;100.00;102669.38;5074351;28;19913;-64
2022/10/03 06:42:14;;;;;;;;;;;;;;;10.84;100.00;102671.38;5073812;28;19912;-64
2022/10/03 06:44:58;;;;;;;;;;;;;;;10.89;100.00;102668.94;5074238;28;19914;-64
2022/10/03 06:47:23;;;;;;;;;;;;;;;10.97;100.00;102675.44;5074052;28;19908;-65
2022/10/03 06:50:04;;;;;;;;;;;;;;;11.03;100.00;102674.81;5073975;28;19974;-65
2022/10/03 06:52:32;;;;;;;;;;;;;;;11.07;100.00;102677.66;5074063;28;19917;-65
2022/10/03 06:55:15;;;;;;;;;;;;;;;11.13;100.00;102677.91;5073567;28;20024;-65
2022/10/03 06:58:01;;;;;;;;;;;;;;;11.19;100.00;102673.75;5073797;28;19940;-65
2022/10/03 07:00:42;;;;;;;;;;;;;;;11.26;100.00;102683.75;5072066;28;19916;-65
2022/10/03 07:03:20;;;;;;;;;;;;;;;11.33;100.00;102687.53;5073425;28;19912;-65
2022/10/03 07:06:00;;;;;;;;;;;;;;;11.38;100.00;102688.63;5073300;28;19916;-65
2022/10/03 07:08:44;;;;;;;;;;;;;;;11.40;100.00;102686.97;5073711;28;20348;-65
2022/10/03 07:11:09;;;;;;;;;;;;;;;11.46;100.00;102696.06;5073160;28;19924;-65
2022/10/03 07:13:53;;;;;;;;;;;;;;;11.50;100.00;102696.16;5073571;28;19908;-65
2022/10/03 07:16:38;;;;;;;;;;;;;;;11.53;100.00;102698.94;5074526;28;19912;-65
2022/10/03 07:19:10;;;;;;;;;;;;;;;11.57;100.00;102703.50;5072652;28;19912;-65
2022/10/03 07:21:38;;;;;;;;;;;;;;;11.58;100.00;102694.75;5073713;28;19915;-65
2022/10/03 07:24:43;;;;;;;;;;;;;;;11.64;100.00;102703.84;5072127;28;19920;-65
2022/10/03 07:27:19;;;;;;;;;;;;;;;11.71;100.00;102701.47;4972276;28;19921;-64
2022/10/03 07:30:03;;;;;;;;;;;;;;;11.75;100.00;102704.28;4973348;28;19910;-64
2022/10/03 07:33:07;;;;;;;;;;;;;;;11.79;100.00;102698.28;5032374;28;19913;-64
2022/10/03 07:41:20;;;;;;;;;;;;;;;11.94;100.00;102703.34;5045135;28;20042;-65
2022/10/03 07:43:46;;;;;;;;;;;;;;;12.01;100.00;102701.84;5058375;28;20272;-65
2022/10/03 07:46:23;;;;;;;;;;;;;;;12.07;100.00;102699.47;5072998;28;19909;-65
2022/10/03 07:48:57;;;;;;;;;;;;;;;12.17;100.00;102705.09;5072474;28;19912;-65
2022/10/03 07:51:31;;;;;;;;;;;;;;;12.24;100.00;102702.78;5072859;28;20321;-65
2022/10/03 07:54:09;;;;;;;;;;;;;;;12.34;100.00;102703.13;5071310;28;19913;-65
2022/10/03 07:56:43;;;;;;;;;;;;;;;12.46;100.00;102703.59;5072703;28;19909;-65
2022/10/03 07:59:17;;;;;;;;;;;;;;;12.55;100.00;102708.38;5072806;28;20360;-65
2022/10/03 08:01:45;;;;;;;;;;;;;;;12.60;100.00;102717.34;5072819;28;19916;-65
2022/10/03 08:04:29;;;;;;;;;;;;;;;12.69;100.00;102724.72;5072358;28;20006;-65
2022/10/03 08:07:00;;;;;;;;;;;;;;;12.77;100.00;102732.09;5072761;28;20460;-65
2022/10/03 08:09:44;;;;;;;;;;;;;;;12.87;100.00;102727.16;5072800;28;20392;-65
2022/10/03 08:12:30;;;;;;;;;;;;;;;12.95;100.00;102731.91;5072398;28;19916;-65
2022/10/03 08:15:10;;;;;;;;;;;;;;;13.06;100.00;102729.66;5072592;28;19909;-65
2022/10/03 08:17:45;;;;;;;;;;;;;;;13.15;100.00;102729.97;5071455;28;19924;-65
2022/10/03 08:20:29;;;;;;;;;;;;;;;13.24;100.00;102733.78;5072519;28;19962;-65
2022/10/03 08:23:16;;;;;;;;;;;;;;;13.31;100.00;102731.41;5070430;28;19995;-66
2022/10/03 08:25:53;;;;;;;;;;;;;;;13.42;100.00;102733.59;5071991;28;19912;-65
2022/10/03 08:28:28;;;;;;;;;;;;;;;13.44;100.00;102734.53;5071519;28;19927;-65
2022/10/03 08:30:56;;;;;;;;;;;;;;;13.48;100.00;102734.72;5073752;28;19939;-65
2022/10/03 08:33:27;;;;;;;;;;;;;;;13.54;100.00;102735.75;5072079;28;19913;-65
2022/10/03 08:36:02;;;;;;;;;;;;;;;13.63;100.00;102744.00;5072321;28;19931;-65
2022/10/03 08:38:42;;;;;;;;;;;;;;;13.74;100.00;102737.34;5072087;28;19913;-65
2022/10/03 08:41:26;;;;;;;;;;;;;;;13.89;100.00;102742.25;5072393;28;19915;-65
2022/10/03 08:44:09;;;;;;;;;;;;;;;14.14;100.00;102737.78;5072386;28;19938;-65
2022/10/03 08:46:34;;;;;;;;;;;;;;;14.40;100.00;102735.94;5072225;28;20268;-65
2022/10/03 08:49:05;;;;;;;;;;;;;;;14.60;100.00;102728.59;5072278;28;19974;-65
2022/10/03 08:51:30;;;;;;;;;;;;;;;14.67;100.00;102725.31;5072189;28;19923;-66
2022/10/03 08:54:15;;;;;;;;;;;;;;;14.71;100.00;102721.00;5072130;28;20011;-65
2022/10/03 08:56:59;;;;;;;;;;;;;;;14.84;100.00;102723.19;5072294;28;19909;-65
2022/10/03 08:59:34;;;;;;;;;;;;;;;15.03;100.00;102729.00;5072518;28;20060;-65
2022/10/03 09:02:13;;;;;;;;;;;;;;;15.12;100.00;102729.25;5070799;28;19919;-66
2022/10/03 09:04:48;;;;;;;;;;;;;;;15.28;100.00;102727.94;5072795;28;20007;-65
2022/10/03 09:07:22;;;;;;;;;;;;;;;15.42;100.00;102728.28;5070881;28;19977;-65
2022/10/03 09:10:06;;;;;;;;;;;;;;;15.67;100.00;102726.31;5071863;28;19966;-66
2022/10/03 09:12:51;;;;;;;;;;;;;;;15.88;100.00;102727.72;5065645;28;20392;-65
2022/10/03 09:15:35;;;;;;;;;;;;;;;15.93;100.00;102728.75;5072009;28;20054;-65
2022/10/03 09:18:20;;;;;;;;;;;;;;;15.92;100.00;102721.66;5071712;28;19912;-65
2022/10/03 09:21:05;;;;;;;;;;;;;;;16.00;100.00;102726.25;5071953;28;20395;-63
2022/10/03 09:23:49;;;;;;;;;;;;;;;16.12;100.00;102725.66;5071242;28;19916;-64
2022/10/03 09:26:32;;;;;;;;;;;;;;;16.11;100.00;102723.88;5071850;28;19934;-65
2022/10/03 09:29:16;;;;;;;;;;;;;;;16.06;100.00;102721.97;5073072;28;19912;-65
2022/10/03 09:31:53;;;;;;;;;;;;;;;16.04;100.00;102724.59;5074192;28;19932;-64
2022/10/03 09:34:38;;;;;;;;;;;;;;;16.01;100.00;102725.41;5075450;28;19969;-65
2022/10/03 09:37:14;;;;;;;;;;;;;;;15.90;100.00;102731.31;5075247;28;20356;-65
2022/10/03 09:39:54;;;;;;;;;;;;;;;15.83;100.00;102735.59;5075577;28;19970;-65
2022/10/03 09:42:28;;;;;;;;;;;;;;;15.77;100.00;102730.09;5075411;28;19955;-65
2022/10/03 09:44:53;;;;;;;;;;;;;;;15.77;100.00;102722.13;5073986;28;19935;-65
2022/10/03 09:47:45;;;;;;;;;;;;;;;15.65;100.00;102722.69;5075164;28;19908;-65
2022/10/03 09:50:29;;;;;;;;;;;;;;;15.50;100.00;102721.47;5075308;28;20290;-64
2022/10/03 09:53:01;;;;;;;;;;;;;;;15.45;100.00;102724.81;5074837;28;20348;-64
2022/10/03 09:55:33;;;;;;;;;;;;;;;15.41;100.00;102725.59;5075022;28;20010;-64
2022/10/03 09:58:17;;;;;;;;;;;;;;;15.41;100.00;102718.56;5075197;28;20382;-64
2022/10/03 10:00:54;;;;;;;;;;;;;;;15.26;100.00;102718.13;5074545;28;19908;-64
2022/10/03 10:03:38;;;;;;;;;;;;;;;15.20;100.00;102725.94;5069882;28;19912;-65
2022/10/03 10:06:09;;;;;;;;;;;;;;;15.23;100.00;102726.00;5073659;28;19912;-65
2022/10/03 10:08:52;;;;;;;;;;;;;;;15.15;100.00;102729.34;5074549;28;20386;-64
2022/10/03 10:11:35;;;;;;;;;;;;;;;15.09;100.00;102725.63;5073255;28;19923;-65
2022/10/03 10:14:20;;;;;;;;;;;;;;;15.03;100.00;102718.41;5074614;28;19919;-65
2022/10/03 10:17:04;;;;;;;;;;;;;;;15.00;100.00;102726.25;5074828;28;19908;-66
2022/10/03 10:19:46;;;;;;;;;;;;;;;15.01;100.00;102722.75;5074629;28;20399;-65
2022/10/03 10:22:30;;;;;;;;;;;;;;;15.09;100.00;102717.69;5074539;28;19908;-65
2022/10/03 10:25:08;;;;;;;;;;;;;;;15.15;100.00;102724.06;5074292;28;19923;-65
2022/10/03 10:27:53;;;;;;;;;;;;;;;15.20;100.00;102720.63;5074541;28;19934;-64
2022/10/03 10:30:20;;;;;;;;;;;;;;;15.25;100.00;102724.31;5074329;28;19961;-64
2022/10/03 10:33:07;;;;;;;;;;;;;;;15.28;100.00;102727.03;5074615;28;19915;-65
2022/10/03 10:35:49;;;;;;;;;;;;;;;15.30;100.00;102725.31;5074408;28;20356;-65
2022/10/03 10:38:26;;;;;;;;;;;;;;;15.34;100.00;102725.47;5073997;28;19909;-65
2022/10/03 10:41:10;;;;;;;;;;;;;;;15.37;100.00;102723.72;5074124;28;19919;-65
2022/10/03 10:43:35;;;;;;;;;;;;;;;15.38;100.00;102721.09;5074432;28;20007;-65
2022/10/03 10:46:12;;;;;;;;;;;;;;;15.41;100.00;102715.91;5074037;28;19952;-65
2022/10/03 10:49:09;;;;;;;;;;;;;;;15.41;100.00;102713.25;5074114;28;19919;-65
2022/10/03 10:51:43;;;;;;;;;;;;;;;15.39;100.00;102720.25;5073894;28;19919;-65
2022/10/03 10:54:23;;;;;;;;;;;;;;;15.33;100.00;102718.34;5073801;28;19908;-65
2022/10/03 10:57:01;;;;;;;;;;;;;;;15.28;100.00;102721.72;5074022;28;19912;-65
2022/10/03 10:59:35;;;;;;;;;;;;;;;15.29;100.00;102720.88;5074218;28;19908;-65
2022/10/03 11:02:00;;;;;;;;;;;;;;;15.30;100.00;102718.28;5073693;28;19912;-65
2022/10/03 11:04:44;;;;;;;;;;;;;;;15.26;100.00;102715.47;5073549;28;19938;-65
2022/10/03 11:07:31;;;;;;;;;;;;;;;15.25;100.00;102717.25;5073278;28;20003;-65
2022/10/03 11:10:03;;;;;;;;;;;;;;;15.29;100.00;102718.25;5053625;28;19924;-63
2022/10/03 11:12:28;;;;;;;;;;;;;;;15.30;100.00;102722.66;5053402;28;19924;-65
2022/10/03 11:14:56;;;;;;;;;;;;;;;15.31;100.00;102719.16;5053658;28;19912;-64
2022/10/03 11:17:40;;;;;;;;;;;;;;;15.29;100.00;102726.19;5053505;28;19935;-65
2022/10/03 11:20:18;;;;;;;;;;;;;;;15.33;100.00;102722.78;5054731;28;19908;-65
2022/10/03 11:22:43;;;;;;;;;;;;;;;15.33;100.00;102720.13;5073117;28;20321;-64
2022/10/03 11:25:26;;;;;;;;;;;;;;;15.32;100.00;102724.50;5072856;28;20011;-65
2022/10/03 11:28:09;;;;;;;;;;;;;;;15.33;100.00;102717.47;5053158;28;19909;-64
2022/10/03 11:30:37;;;;;;;;;;;;;;;15.31;100.00;102713.84;5065358;28;19950;-64
2022/10/03 11:33:34;;;;;;;;;;;;;;;15.33;100.00;102715.69;5072090;28;19920;-64
2022/10/03 11:36:02;;;;;;;;;;;;;;;15.36;100.00;102722.84;5073050;28;20386;-65
2022/10/03 11:38:36;;;;;;;;;;;;;;;15.34;100.00;102711.28;5072414;28;19927;-64
2022/10/03 11:41:01;;;;;;;;;;;;;;;15.31;100.00;102705.91;5072830;28;19959;-64
2022/10/03 11:43:27;;;;;;;;;;;;;;;15.27;100.00;102706.66;5072780;28;19955;-65
2022/10/03 11:46:05;;;;;;;;;;;;;;;15.28;100.00;102704.06;5072647;28;19938;-65
2022/10/03 11:48:30;;;;;;;;;;;;;;;15.21;100.00;102701.22;5072912;28;19920;-65
2022/10/03 11:51:01;;;;;;;;;;;;;;;15.16;100.00;102706.38;5072391;28;19925;-65
2022/10/03 11:53:29;;;;;;;;;;;;;;;15.13;100.00;102699.22;5071503;28;19916;-67
2022/10/03 11:56:12;;;;;;;;;;;;;;;15.15;100.00;102713.44;5072705;28;20038;-65
2022/10/03 11:58:40;;;;;;;;;;;;;;;15.16;100.00;102715.22;5072712;28;19908;-66
2022/10/03 12:01:06;;;;;;;;;;;;;;;15.15;100.00;102702.84;5073010;28;19908;-65
2022/10/03 12:03:37;;;;;;;;;;;;;;;15.13;100.00;102704.53;5075075;28;20301;-65
2022/10/03 12:09:06;;;;;;;;;;;;;;;15.15;100.00;102700.19;5072675;28;19923;-65
2022/10/03 12:11:35;;;;;;;;;;;;;;;15.14;100.00;102706.34;5072751;28;19916;-65
2022/10/03 12:14:19;;;;;;;;;;;;;;;15.14;100.00;102709.00;5072576;28;20416;-66
2022/10/03 12:16:44;;;;;;;;;;;;;;;15.14;100.00;102703.69;5072623;28;19908;-66
2022/10/03 12:19:33;;;;;;;;;;;;;;;15.11;100.00;102705.34;5072387;28;20418;-65
2022/10/03 12:22:07;;;;;;;;;;;;;;;15.11;100.00;102697.38;5034396;28;19915;-65
2022/10/03 12:24:40;;;;;;;;;;;;;;;15.11;100.00;102708.91;5072290;28;20283;-65
2022/10/03 12:27:25;;;;;;;;;;;;;;;15.15;100.00;102689.59;5073166;28;19912;-65
2022/10/03 12:29:59;;;;;;;;;;;;;;;15.18;100.00;102697.63;5072590;28;20356;-65
2022/10/03 12:32:43;;;;;;;;;;;;;;;15.26;100.00;102692.53;5072138;28;19913;-65
2022/10/03 12:35:43;;;;;;;;;;;;;;;15.30;100.00;102696.13;5072441;28;19978;-65
2022/10/03 12:38:09;;;;;;;;;;;;;;;15.38;100.00;102689.28;4971304;28;19913;-65
2022/10/03 12:40:40;;;;;;;;;;;;;;;15.35;100.00;102686.56;5050944;28;19912;-65
2022/10/03 12:43:15;;;;;;;;;;;;;;;15.37;100.00;102684.84;5072217;28;19908;-64
2022/10/03 12:45:42;;;;;;;;;;;;;;;15.32;100.00;102689.13;5073223;28;19915;-65
2022/10/03 12:48:07;;;;;;;;;;;;;;;15.34;100.00;102684.75;5072392;28;20264;-64
2022/10/03 12:50:42;;;;;;;;;;;;;;;15.39;100.00;102688.44;5072072;28;19971;-65
2022/10/03 12:53:19;;;;;;;;;;;;;;;15.33;100.00;102683.88;5070694;28;19916;-65
2022/10/03 12:55:44;;;;;;;;;;;;;;;15.36;100.00;102685.69;5072203;28;19955;-64
2022/10/03 12:58:17;;;;;;;;;;;;;;;15.43;100.00;102673.50;5072011;28;19946;-65
2022/10/03 13:00:55;;;;;;;;;;;;;;;15.48;100.00;102674.53;5070185;28;19912;-64
2022/10/03 13:03:26;;;;;;;;;;;;;;;15.45;100.00;102671.75;5072988;28;20275;-65
2022/10/03 13:06:10;;;;;;;;;;;;;;;15.41;100.00;102686.72;5073788;28;20007;-66
2022/10/03 13:08:53;;;;;;;;;;;;;;;15.32;100.00;102683.81;5075630;28;20403;-65
2022/10/03 13:11:19;;;;;;;;;;;;;;;15.31;100.00;102677.63;5073597;28;20392;-64
2022/10/03 13:13:44;;;;;;;;;;;;;;;15.30;100.00;102680.22;5074841;28;20352;-64
2022/10/03 13:16:31;;;;;;;;;;;;;;;15.25;100.00;102676.56;5075683;28;19919;-65
2022/10/03 13:19:00;;;;;;;;;;;;;;;15.22;100.00;102676.47;5055665;28;19920;-66
2022/10/03 13:21:44;;;;;;;;;;;;;;;15.20;100.00;102672.91;5055621;28;20299;-66
2022/10/03 13:24:28;;;;;;;;;;;;;;;15.15;100.00;102665.72;5066889;28;20457;-66
2022/10/03 13:26:59;;;;;;;;;;;;;;;15.15;100.00;102671.03;5075370;28;20279;-64
2022/10/03 13:29:28;;;;;;;;;;;;;;;15.13;100.00;102666.53;5075346;28;20001;-65
2022/10/03 13:31:57;;;;;;;;;;;;;;;15.13;100.00;102667.41;5076209;28;20263;-64
2022/10/03 13:34:27;;;;;;;;;;;;;;;15.15;100.00;102671.03;5075283;28;19912;-64